createdAt,value
2019-03-29T00:01:47.932Z,9.20
2019-03-29T00:04:35.217Z,9.80
2019-03-29T00:07:04.053Z,9.20
2019-03-29T00:09:32.300Z,9.50
2019-03-29T00:12:00.351Z,9.60
2019-03-29T00:14:28.803Z,9.60
2019-03-29T00:16:56.860Z,9.60
2019-03-29T00:19:24.813Z,9.60
2019-03-29T00:21:52.855Z,9.50
2019-03-29T00:24:40.414Z,9.50
2019-03-29T00:27:09.078Z,9.20
2019-03-29T00:29:56.188Z,9.50
2019-03-29T00:32:24.188Z,9.20
2019-03-29T00:34:52.086Z,9.50
2019-03-29T00:37:20.265Z,9.50
2019-03-29T00:39:48.672Z,9.30
2019-03-29T00:42:17.163Z,9.40
2019-03-29T00:44:45.396Z,9.10
2019-03-29T00:47:14.085Z,8.70
2019-03-29T00:50:01.354Z,9.40
2019-03-29T00:52:29.616Z,8.80
2019-03-29T00:54:57.699Z,9.40
2019-03-29T00:57:44.964Z,9.40
2019-03-29T01:00:12.947Z,9.00
2019-03-29T01:02:40.839Z,9.30
2019-03-29T01:05:08.830Z,9.30
2019-03-29T01:07:36.714Z,9.30
2019-03-29T01:10:05.453Z,9.30
2019-03-29T01:12:33.485Z,9.30
2019-03-29T01:15:01.376Z,9.30
2019-03-29T01:17:29.281Z,9.30
2019-03-29T01:20:16.446Z,9.30
2019-03-29T01:22:44.510Z,8.90
2019-03-29T01:25:31.655Z,9.20
2019-03-29T01:28:00.987Z,8.80
2019-03-29T01:30:29.128Z,9.20
2019-03-29T01:32:57.347Z,9.00
2019-03-29T01:35:44.681Z,9.20
2019-03-29T01:38:25.115Z,8.40
2019-03-29T01:40:54.770Z,8.30
2019-03-29T01:43:22.916Z,9.10
2019-03-29T01:45:50.854Z,9.20
2019-03-29T01:48:18.803Z,9.10
2019-03-29T01:50:46.738Z,8.40
2019-03-29T01:53:14.799Z,9.10
2019-03-29T01:55:43.155Z,9.10
2019-03-29T01:58:11.198Z,9.00
2019-03-29T02:00:39.258Z,9.00
2019-03-29T02:03:07.301Z,8.20
2019-03-29T02:05:35.428Z,8.90
2019-03-29T02:08:04.258Z,8.80
2019-03-29T02:10:33.044Z,8.20
2019-03-29T02:13:00.997Z,8.80
2019-03-29T02:15:29.169Z,8.80
2019-03-29T02:17:57.455Z,8.70
2019-03-29T02:20:25.369Z,8.80
2019-03-29T02:22:53.402Z,8.70
2019-03-29T02:25:21.495Z,8.70
2019-03-29T02:27:49.694Z,7.90
2019-03-29T02:30:18.015Z,8.60
2019-03-29T02:32:45.993Z,8.50
2019-03-29T02:35:33.175Z,8.50
2019-03-29T02:38:01.257Z,8.10
2019-03-29T02:40:48.470Z,8.70
2019-03-29T02:43:16.538Z,8.00
2019-03-29T02:45:44.712Z,8.40
2019-03-29T02:48:12.733Z,8.40
2019-03-29T02:50:40.947Z,8.50
2019-03-29T02:53:09.108Z,8.50
2019-03-29T02:55:37.092Z,8.50
2019-03-29T02:58:05.040Z,8.40
2019-03-29T03:00:33.006Z,8.40
2019-03-29T03:03:20.223Z,8.40
2019-03-29T03:05:48.275Z,7.90
2019-03-29T03:08:16.559Z,8.40
2019-03-29T03:10:44.631Z,8.30
2019-03-29T03:13:33.465Z,8.30
2019-03-29T03:16:01.440Z,7.80
2019-03-29T03:18:29.520Z,8.30
2019-03-29T03:20:57.583Z,6.90
2019-03-29T03:23:26.084Z,8.20
2019-03-29T03:25:54.009Z,8.20
2019-03-29T03:28:21.994Z,8.90
2019-03-29T03:30:49.951Z,8.30
2019-03-29T03:33:17.966Z,6.90
2019-03-29T03:36:05.289Z,8.30
2019-03-29T03:38:34.859Z,8.10
2019-03-29T03:41:02.936Z,8.30
2019-03-29T03:43:30.956Z,8.30
2019-03-29T03:46:18.202Z,7.70
2019-03-29T03:48:46.320Z,8.10
2019-03-29T03:51:33.470Z,8.20
2019-03-29T03:54:13.653Z,8.10
2019-03-29T03:56:42.184Z,7.20
2019-03-29T03:59:10.205Z,8.10
2019-03-29T04:01:38.233Z,8.00
2019-03-29T04:04:06.116Z,8.00
2019-03-29T04:06:53.407Z,8.00
2019-03-29T04:09:21.396Z,7.50
2019-03-29T04:11:49.401Z,8.00
2019-03-29T04:14:36.585Z,8.00
2019-03-29T04:17:17.115Z,7.80
2019-03-29T04:19:57.783Z,7.70
2019-03-29T04:22:26.039Z,7.40
2019-03-29T04:24:54.151Z,8.00
2019-03-29T04:27:22.140Z,7.90
2019-03-29T04:29:50.047Z,7.90
2019-03-29T04:32:17.981Z,7.90
2019-03-29T04:34:46.151Z,7.90
2019-03-29T04:37:14.264Z,6.90
2019-03-29T04:39:42.634Z,7.90
2019-03-29T04:42:10.557Z,7.90
2019-03-29T04:44:38.603Z,7.90
2019-03-29T04:47:06.747Z,7.90
2019-03-29T04:49:34.978Z,7.90
2019-03-29T04:52:03.036Z,7.80
2019-03-29T04:54:50.275Z,7.90
2019-03-29T04:57:18.543Z,7.90
2019-03-29T05:00:06.480Z,7.90
2019-03-29T05:02:34.543Z,7.70
2019-03-29T05:05:02.576Z,7.70
2019-03-29T05:07:30.851Z,8.00
2019-03-29T05:10:21.538Z,7.70
2019-03-29T05:12:47.933Z,7.80
2019-03-29T05:15:15.987Z,9.80
2019-03-29T05:17:43.946Z,7.20
2019-03-29T05:20:11.993Z,7.80
2019-03-29T05:22:40.272Z,7.80
2019-03-29T05:25:08.586Z,7.80
2019-03-29T05:27:36.700Z,7.80
2019-03-29T05:30:04.972Z,7.70
2019-03-29T05:32:52.198Z,7.70
2019-03-29T05:35:20.141Z,7.30
2019-03-29T05:37:48.273Z,7.70
2019-03-29T05:40:37.257Z,6.60
2019-03-29T05:43:05.550Z,7.40
2019-03-29T05:45:52.980Z,7.70
2019-03-29T05:48:21.002Z,7.20
2019-03-29T05:50:49.066Z,7.70
2019-03-29T05:53:17.141Z,7.70
2019-03-29T05:55:48.202Z,7.70
2019-03-29T05:58:15.179Z,7.70
2019-03-29T06:00:43.086Z,7.60
2019-03-29T06:03:11.128Z,7.70
2019-03-29T06:05:39.271Z,7.70
2019-03-29T06:08:07.496Z,7.60
2019-03-29T06:10:54.968Z,7.70
2019-03-29T06:13:23.115Z,7.30
2019-03-29T06:15:51.023Z,7.70
2019-03-29T06:18:19.033Z,7.70
2019-03-29T06:20:46.946Z,7.70
2019-03-29T06:23:15.127Z,8.20
2019-03-29T06:25:43.207Z,7.70
2019-03-29T06:28:11.380Z,7.80
2019-03-29T06:30:39.390Z,7.80
2019-03-29T06:33:07.355Z,7.90
2019-03-29T06:35:37.613Z,7.90
2019-03-29T06:38:06.454Z,7.90
2019-03-29T06:41:02.680Z,8.00
2019-03-29T06:43:42.649Z,8.00
2019-03-29T06:46:10.648Z,7.40
2019-03-29T06:48:38.804Z,8.10
2019-03-29T06:51:26.032Z,7.80
2019-03-29T06:54:15.086Z,7.70
2019-03-29T06:56:43.123Z,7.90
2019-03-29T06:59:11.280Z,8.70
2019-03-29T07:01:39.290Z,8.30
2019-03-29T07:04:26.421Z,8.30
2019-03-29T07:07:13.919Z,8.30
2019-03-29T07:09:41.881Z,8.30
2019-03-29T07:12:09.860Z,8.70
2019-03-29T07:14:56.911Z,8.70
2019-03-29T07:17:24.819Z,8.80
2019-03-29T07:20:11.955Z,8.80
2019-03-29T07:22:39.855Z,8.30
2019-03-29T07:25:07.767Z,8.90
2019-03-29T07:27:44.674Z,8.90
2019-03-29T07:30:05.765Z,9.00
2019-03-29T07:32:33.643Z,9.10
2019-03-29T07:35:01.617Z,9.20
2019-03-29T07:37:29.551Z,9.20
2019-03-29T07:39:57.628Z,9.30
2019-03-29T07:42:25.804Z,9.40
2019-03-29T07:44:54.034Z,9.50
2019-03-29T07:47:22.274Z,9.60
2019-03-29T07:49:50.280Z,9.60
2019-03-29T07:52:18.216Z,9.30
2019-03-29T07:54:46.386Z,9.80
2019-03-29T07:57:14.423Z,10.00
2019-03-29T07:59:42.531Z,10.00
2019-03-29T08:02:10.393Z,10.10
2019-03-29T08:04:38.491Z,10.20
2019-03-29T08:07:26.543Z,10.30
2019-03-29T08:09:44.323Z,10.10
2019-03-29T08:12:12.567Z,10.40
2019-03-29T08:14:40.464Z,10.50
2019-03-29T08:17:08.336Z,10.60
2019-03-29T08:19:37.376Z,10.60
2019-03-29T08:22:05.906Z,10.70
2019-03-29T08:24:53.049Z,10.80
2019-03-29T08:27:21.103Z,10.40
2019-03-29T08:29:49.282Z,10.90
2019-03-29T08:32:17.306Z,11.00
2019-03-29T08:35:04.682Z,11.00
2019-03-29T08:37:32.904Z,10.40
2019-03-29T08:40:00.775Z,11.20
2019-03-29T08:42:28.733Z,11.30
2019-03-29T08:44:56.621Z,11.30
2019-03-29T08:47:24.720Z,11.30
2019-03-29T08:49:52.836Z,11.40
2019-03-29T08:52:40.114Z,11.50
2019-03-29T08:55:08.189Z,11.30
2019-03-29T08:57:36.069Z,11.70
2019-03-29T09:00:04.983Z,11.70
2019-03-29T09:02:53.548Z,11.70
2019-03-29T09:05:21.704Z,11.30
2019-03-29T09:07:49.859Z,11.80
2019-03-29T09:10:23.322Z,11.90
2019-03-29T09:12:51.173Z,12.00
2019-03-29T09:15:19.016Z,12.10
2019-03-29T09:17:46.920Z,12.20
2019-03-29T09:20:15.129Z,12.20
2019-03-29T09:22:43.431Z,12.40
2019-03-29T09:25:11.311Z,12.40
2019-03-29T09:27:58.476Z,12.50
2019-03-29T09:33:23.888Z,12.00
2019-03-29T09:35:51.897Z,12.20
2019-03-29T09:38:19.889Z,12.80
2019-03-29T09:40:57.789Z,12.90
2019-03-29T09:43:17.984Z,12.90
2019-03-29T09:45:45.963Z,12.90
2019-03-29T09:48:34.704Z,13.10
2019-03-29T09:51:02.844Z,12.70
2019-03-29T09:53:30.704Z,13.20
2019-03-29T09:55:58.621Z,13.30
2019-03-29T09:58:26.538Z,13.40
2019-03-29T10:00:54.738Z,13.50
2019-03-29T10:03:22.659Z,13.60
2019-03-29T10:05:50.587Z,13.60
2019-03-29T10:08:18.452Z,13.70
2019-03-29T10:10:46.338Z,13.90
2019-03-29T10:13:35.043Z,14.00
2019-03-29T10:16:03.000Z,13.50
2019-03-29T10:18:31.075Z,14.20
2019-03-29T10:20:59.139Z,14.40
2019-03-29T10:23:27.178Z,14.50
2019-03-29T10:26:14.375Z,14.60
2019-03-29T10:28:42.596Z,14.20
2019-03-29T10:31:10.618Z,14.90
2019-03-29T10:33:38.594Z,15.00
2019-03-29T10:36:06.418Z,15.10
2019-03-29T10:38:34.315Z,15.20
2019-03-29T10:41:22.704Z,15.20
2019-03-29T10:44:10.335Z,15.30
2019-03-29T10:46:38.210Z,15.30
2019-03-29T10:49:25.250Z,15.60
2019-03-29T10:51:53.082Z,15.50
2019-03-29T10:54:21.188Z,15.80
2019-03-29T10:56:49.255Z,15.90
2019-03-29T10:59:27.321Z,16.00
2019-03-29T11:01:47.094Z,16.10
2019-03-29T11:04:15.310Z,16.20
2019-03-29T11:06:43.247Z,16.30
2019-03-29T11:09:11.155Z,16.50
2019-03-29T11:11:39.015Z,16.60
2019-03-29T11:14:06.858Z,16.60
2019-03-29T11:16:34.743Z,16.60
2019-03-29T11:19:02.632Z,16.80
2019-03-29T11:21:30.821Z,16.90
2019-03-29T11:23:58.796Z,17.00
2019-03-29T11:26:26.794Z,17.10
2019-03-29T11:28:54.643Z,17.20
2019-03-29T11:31:25.331Z,17.20
2019-03-29T11:33:52.440Z,17.30
2019-03-29T11:36:20.275Z,17.30
2019-03-29T11:38:48.194Z,17.40
2019-03-29T11:41:16.074Z,17.30
2019-03-29T11:43:43.934Z,17.30
2019-03-29T11:46:11.790Z,17.50
2019-03-29T11:48:39.699Z,17.50
2019-03-29T11:51:18.719Z,17.60
2019-03-29T11:53:37.704Z,17.60
2019-03-29T11:56:05.611Z,17.30
2019-03-29T11:58:33.525Z,17.30
2019-03-29T12:01:01.653Z,17.50
2019-03-29T12:03:29.951Z,17.60
2019-03-29T12:05:57.902Z,17.60
2019-03-29T12:08:25.773Z,17.70
2019-03-29T12:10:53.659Z,17.90
2019-03-29T12:13:21.551Z,18.00
2019-03-29T12:15:49.458Z,18.10
2019-03-29T12:18:36.484Z,18.20
2019-03-29T12:21:04.498Z,18.30
2019-03-29T12:23:32.820Z,18.40
2019-03-29T12:26:00.744Z,18.50
2019-03-29T12:28:28.839Z,18.70
2019-03-29T12:30:56.680Z,18.80
2019-03-29T12:33:24.573Z,18.90
2019-03-29T12:36:11.626Z,18.90
2019-03-29T12:38:39.500Z,18.90
2019-03-29T12:41:07.359Z,19.10
2019-03-29T12:43:35.465Z,19.20
2019-03-29T12:46:22.510Z,19.20
2019-03-29T12:48:50.658Z,19.10
2019-03-29T12:51:18.558Z,19.40
2019-03-29T12:53:46.674Z,19.40
2019-03-29T12:56:14.582Z,19.50
2019-03-29T12:58:42.666Z,19.60
2019-03-29T13:01:10.513Z,19.60
2019-03-29T13:03:38.378Z,19.70
2019-03-29T13:06:06.308Z,19.80
2019-03-29T13:08:34.127Z,19.90
2019-03-29T13:11:21.192Z,20.00
2019-03-29T13:13:49.072Z,19.90
2019-03-29T13:16:17.180Z,20.10
2019-03-29T13:18:45.374Z,20.20
2019-03-29T13:21:13.431Z,20.20
2019-03-29T13:23:41.315Z,20.40
2019-03-29T13:26:09.181Z,20.60
2019-03-29T13:28:37.066Z,20.70
2019-03-29T13:31:04.954Z,20.80
2019-03-29T13:33:52.054Z,21.00
2019-03-29T13:36:19.871Z,21.00
2019-03-29T13:38:47.710Z,21.20
2019-03-29T13:41:15.738Z,21.20
2019-03-29T13:44:02.857Z,21.40
2019-03-29T13:46:31.046Z,21.40
2019-03-29T13:48:59.003Z,21.20
2019-03-29T13:51:46.310Z,21.30
2019-03-29T13:54:14.342Z,21.00
2019-03-29T13:56:42.300Z,21.10
2019-03-29T13:59:10.145Z,21.30
2019-03-29T14:01:37.998Z,21.40
2019-03-29T14:04:05.870Z,21.20
2019-03-29T14:06:52.915Z,21.30
2019-03-29T14:09:20.762Z,21.00
2019-03-29T14:11:48.633Z,21.30
2019-03-29T14:14:16.552Z,21.10
2019-03-29T14:17:03.716Z,21.00
2019-03-29T14:19:31.601Z,21.00
2019-03-29T14:21:59.765Z,20.70
2019-03-29T14:24:29.069Z,20.50
2019-03-29T14:26:56.973Z,20.50
2019-03-29T14:29:24.882Z,19.40
2019-03-29T14:31:54.230Z,20.60
2019-03-29T14:34:22.465Z,20.60
2019-03-29T14:36:50.322Z,20.50
2019-03-29T14:39:18.227Z,20.50
2019-03-29T14:41:46.083Z,20.60
2019-03-29T14:44:13.971Z,20.40
2019-03-29T14:47:01.114Z,20.40
2019-03-29T14:49:36.080Z,20.10
2019-03-29T14:52:04.077Z,20.10
2019-03-29T14:54:51.646Z,20.40
2019-03-29T14:57:19.522Z,20.00
2019-03-29T14:59:47.406Z,20.30
2019-03-29T15:02:15.311Z,20.30
2019-03-29T15:04:43.208Z,20.20
2019-03-29T15:07:30.267Z,20.20
2019-03-29T15:09:58.271Z,19.90
2019-03-29T15:12:26.149Z,20.30
2019-03-29T15:15:05.594Z,20.20
2019-03-29T15:17:43.378Z,20.20
2019-03-29T15:20:11.265Z,20.00
2019-03-29T15:22:39.136Z,20.40
2019-03-29T15:25:26.382Z,20.50
2019-03-29T15:27:54.413Z,20.50
2019-03-29T15:30:22.299Z,20.20
2019-03-29T15:32:50.154Z,20.30
2019-03-29T15:35:20.792Z,20.50
2019-03-29T15:37:48.038Z,20.30
2019-03-29T15:40:16.122Z,20.40
2019-03-29T15:43:03.393Z,20.40
2019-03-29T15:45:31.615Z,20.00
2019-03-29T15:47:59.464Z,20.50
2019-03-29T15:50:33.328Z,20.50
2019-03-29T15:53:01.462Z,20.20
2019-03-29T15:55:48.514Z,20.30
2019-03-29T15:58:16.658Z,20.20
2019-03-29T16:01:03.681Z,20.50
2019-03-29T16:03:43.756Z,20.00
2019-03-29T16:06:11.816Z,20.20
2019-03-29T16:08:39.783Z,20.30
2019-03-29T16:11:09.288Z,20.30
2019-03-29T16:13:56.729Z,20.20
2019-03-29T16:16:24.875Z,19.70
2019-03-29T16:19:11.903Z,20.00
2019-03-29T16:21:40.048Z,19.90
2019-03-29T16:24:08.304Z,19.90
2019-03-29T16:26:36.339Z,19.90
2019-03-29T16:29:04.263Z,19.90
2019-03-29T16:31:32.234Z,20.00
2019-03-29T16:34:00.193Z,20.10
2019-03-29T16:36:28.490Z,20.00
2019-03-29T16:39:15.539Z,19.90
2019-03-29T16:41:43.696Z,20.00
2019-03-29T16:44:11.744Z,20.20
2019-03-29T16:46:39.817Z,20.30
2019-03-29T16:49:07.940Z,20.40
2019-03-29T16:51:35.843Z,20.50
2019-03-29T16:54:05.657Z,20.20
2019-03-29T16:56:34.004Z,20.20
2019-03-29T16:59:01.940Z,19.80
2019-03-29T17:01:29.791Z,20.30
2019-03-29T17:03:57.703Z,20.20
2019-03-29T17:06:28.751Z,20.10
2019-03-29T17:09:15.999Z,19.70
2019-03-29T17:11:44.129Z,19.30
2019-03-29T17:14:11.963Z,19.70
2019-03-29T17:16:59.214Z,19.50
2019-03-29T17:19:27.290Z,19.10
2019-03-29T17:21:55.268Z,19.30
2019-03-29T17:24:23.259Z,19.20
2019-03-29T17:26:51.132Z,19.10
2019-03-29T17:29:19.415Z,19.20
2019-03-29T17:31:47.738Z,19.20
2019-03-29T17:34:15.704Z,19.20
2019-03-29T17:36:43.674Z,19.10
2019-03-29T17:39:11.726Z,18.90
2019-03-29T17:41:39.994Z,18.60
2019-03-29T17:44:07.997Z,18.50
2019-03-29T17:46:36.090Z,17.70
2019-03-29T17:49:04.175Z,18.10
2019-03-29T17:51:32.134Z,17.90
2019-03-29T17:54:19.204Z,17.80
2019-03-29T17:57:06.363Z,17.70
2019-03-29T17:59:34.608Z,17.50
2019-03-29T18:02:09.183Z,17.30
2019-03-29T18:04:32.526Z,17.20
2019-03-29T18:07:00.547Z,17.10
2019-03-29T18:09:28.491Z,17.10
2019-03-29T18:12:15.608Z,17.00
2019-03-29T18:14:43.680Z,16.50
2019-03-29T18:17:24.410Z,16.70
2019-03-29T18:19:52.408Z,16.00
2019-03-29T18:22:20.370Z,16.40
2019-03-29T18:24:48.305Z,16.50
2019-03-29T18:27:26.445Z,16.30
2019-03-29T18:29:54.445Z,16.20
2019-03-29T18:32:22.430Z,16.10
2019-03-29T18:35:09.513Z,15.70
2019-03-29T18:37:37.463Z,16.10
2019-03-29T18:40:05.626Z,16.20
2019-03-29T18:42:52.770Z,16.00
2019-03-29T18:45:21.799Z,15.70
2019-03-29T18:48:09.113Z,16.10
2019-03-29T18:50:37.463Z,15.30
2019-03-29T18:53:05.479Z,16.00
2019-03-29T18:55:33.596Z,15.70
2019-03-29T18:58:01.707Z,15.80
2019-03-29T19:00:36.214Z,15.80
2019-03-29T19:03:04.369Z,15.50
2019-03-29T19:05:51.766Z,15.60
2019-03-29T19:08:20.023Z,15.30
2019-03-29T19:10:48.035Z,15.50
2019-03-29T19:13:16.068Z,15.40
2019-03-29T19:15:44.089Z,15.40
2019-03-29T19:18:12.338Z,15.40
2019-03-29T19:20:59.394Z,15.30
2019-03-29T19:23:46.434Z,15.00
2019-03-29T19:26:14.432Z,14.70
2019-03-29T19:28:42.316Z,15.10
2019-03-29T19:31:11.059Z,15.20
2019-03-29T19:33:39.354Z,15.10
2019-03-29T19:36:07.219Z,15.10
2019-03-29T19:38:35.107Z,15.00
2019-03-29T19:41:02.978Z,15.00
2019-03-29T19:43:50.070Z,14.90
2019-03-29T19:46:30.190Z,14.40
2019-03-29T19:48:58.660Z,14.70
2019-03-29T19:51:26.524Z,14.80
2019-03-29T19:54:06.702Z,14.80
2019-03-29T19:56:24.421Z,14.70
2019-03-29T19:58:52.392Z,14.60
2019-03-29T20:01:21.685Z,14.60
2019-03-29T20:03:49.861Z,14.60
2019-03-29T20:06:18.095Z,14.60
2019-03-29T20:08:46.251Z,14.50
2019-03-29T20:11:14.114Z,14.40
2019-03-29T20:13:43.914Z,14.30
2019-03-29T20:16:11.983Z,14.20
2019-03-29T20:18:40.297Z,14.20
2019-03-29T20:21:08.344Z,14.20
2019-03-29T20:23:36.277Z,14.20
2019-03-29T20:26:04.146Z,14.20
2019-03-29T20:28:32.362Z,14.20
2019-03-29T20:31:19.487Z,14.20
2019-03-29T20:33:59.823Z,13.70
2019-03-29T20:36:27.838Z,13.70
2019-03-29T20:39:15.190Z,14.10
2019-03-29T20:44:28.218Z,14.10
2019-03-29T20:46:56.420Z,13.90
2019-03-29T20:49:24.520Z,13.90
2019-03-29T20:51:52.667Z,14.00
2019-03-29T20:54:23.197Z,13.90
2019-03-29T20:56:51.264Z,13.90
2019-03-29T20:59:19.367Z,13.90
2019-03-29T21:01:47.330Z,13.90
2019-03-29T21:04:15.285Z,13.90
2019-03-29T21:06:43.136Z,13.90
2019-03-29T21:09:11.524Z,13.80
2019-03-29T21:11:39.732Z,13.80
2019-03-29T21:14:07.686Z,13.80
2019-03-29T21:16:35.675Z,13.70
2019-03-29T21:19:03.758Z,13.70
2019-03-29T21:21:31.721Z,13.70
2019-03-29T21:23:59.859Z,13.70
2019-03-29T21:26:28.046Z,13.60
2019-03-29T21:28:56.098Z,13.60
2019-03-29T21:31:24.091Z,13.60
2019-03-29T21:33:52.100Z,13.50
2019-03-29T21:36:20.008Z,13.50
2019-03-29T21:38:48.513Z,13.50
2019-03-29T21:41:16.722Z,13.50
2019-03-29T21:43:44.789Z,13.30
2019-03-29T21:46:12.735Z,13.50
2019-03-29T21:48:40.699Z,13.40
2019-03-29T21:51:27.789Z,13.40
2019-03-29T21:53:55.667Z,12.80
2019-03-29T21:56:23.531Z,13.30
2019-03-29T21:58:51.850Z,13.30
2019-03-29T22:01:19.871Z,13.20
2019-03-29T22:03:48.720Z,13.20
2019-03-29T22:06:35.854Z,13.30
2019-03-29T22:09:36.184Z,13.00
2019-03-29T22:11:52.884Z,13.00
2019-03-29T22:14:39.927Z,13.20
2019-03-29T22:17:07.871Z,12.90
2019-03-29T22:19:55.058Z,13.20
2019-03-29T22:22:23.267Z,12.80
2019-03-29T22:24:51.234Z,13.10
2019-03-29T22:27:19.235Z,13.10
2019-03-29T22:30:07.185Z,13.00
2019-03-29T22:32:35.023Z,12.80
2019-03-29T22:35:03.694Z,13.00
2019-03-29T22:37:31.896Z,12.90
2019-03-29T22:39:59.749Z,12.90
2019-03-29T22:42:29.009Z,12.90
2019-03-29T22:44:57.146Z,12.90
2019-03-29T22:47:25.208Z,12.80
2019-03-29T22:49:53.455Z,12.80
2019-03-29T22:52:21.389Z,12.80
2019-03-29T22:55:08.472Z,12.80
2019-03-29T22:57:55.811Z,12.10
2019-03-29T23:00:27.780Z,12.60
2019-03-29T23:02:55.846Z,12.80
2019-03-29T23:05:23.937Z,12.70
2019-03-29T23:08:11.224Z,12.70
2019-03-29T23:10:39.225Z,12.50
2019-03-29T23:13:26.440Z,12.70
2019-03-29T23:18:38.897Z,12.20
2019-03-29T23:21:06.787Z,12.50
2019-03-29T23:23:34.653Z,12.60
2019-03-29T23:26:02.833Z,12.50
2019-03-29T23:28:30.912Z,12.50
2019-03-29T23:31:01.835Z,12.50
2019-03-29T23:33:29.919Z,12.40
2019-03-29T23:35:58.086Z,12.40
2019-03-29T23:38:26.097Z,12.30
2019-03-29T23:40:54.051Z,12.30
2019-03-29T23:43:22.017Z,12.30
2019-03-29T23:45:49.865Z,12.20
2019-03-29T23:48:17.998Z,12.20
2019-03-29T23:50:46.326Z,12.20
2019-03-29T23:53:21.015Z,12.20
2019-03-29T23:56:08.164Z,11.90
2019-03-29T23:58:36.675Z,11.20
